History Data

Date (GMT-7:00) CPM ACPM uSv/h Latitude Longitude Altitude CO CO2 TVOC HCHO Air Pressure Temperature Humidity Type
2025-11-20 13:11:20 17 18.60 0.085000 41.649648 41.62752893 0 0 0 0 0 0 0 0 STD5.60
2025-11-20 13:06:18 16 19.10 0.080000 41.649648 41.62752893 0 0 0 0 0 0 0 0 STD5.60
2025-11-20 13:01:16 14 18.80 0.070000 41.649648 41.62752893 0 0 0 0 0 0 0 0 STD5.60
2025-11-20 12:56:13 21 18.50 0.105000 41.649648 41.62752893 0 0 0 0 0 0 0 0 STD5.60
2025-11-20 12:51:10 19 20.00 0.095000 41.649648 41.62752893 0 0 0 0 0 0 0 0 STD5.60
2025-11-20 12:46:07 23 18.80 0.115000 41.649648 41.62752893 0 0 0 0 0 0 0 0 STD5.60
2025-11-20 12:41:05 12 17.80 0.060000 41.649648 41.62752893 0 0 0 0 0 0 0 0 STD5.60
2025-11-20 12:36:03 18 18.60 0.090000 41.649648 41.62752893 0 0 0 0 0 0 0 0 STD5.60
2025-11-20 12:31:01 14 18.50 0.070000 41.649648 41.62752893 0 0 0 0 0 0 0 0 STD5.60
2025-11-20 12:25:58 18 18.80 0.090000 41.649648 41.62752893 0 0 0 0 0 0 0 0 STD5.60
2025-11-20 12:20:56 18 17.60 0.090000 41.649648 41.62752893 0 0 0 0 0 0 0 0 STD5.60
2025-11-20 12:15:54 21 16.80 0.105000 41.649648 41.62752893 0 0 0 0 0 0 0 0 STD5.60
2025-11-20 12:10:52 10 17.70 0.050000 41.649648 41.62752893 0 0 0 0 0 0 0 0 STD5.60
2025-11-20 12:05:50 20 19.60 0.100000 41.649648 41.62752893 0 0 0 0 0 0 0 0 STD5.60
2025-11-20 12:00:48 16 17.90 0.080000 41.649648 41.62752893 0 0 0 0 0 0 0 0 STD5.60
2025-11-20 11:55:46 13 18.40 0.065000 41.649648 41.62752893 0 0 0 0 0 0 0 0 STD5.60
2025-11-20 11:50:42 23 20.00 0.115000 41.649648 41.62752893 0 0 0 0 0 0 0 0 STD5.60
2025-11-20 11:45:40 20 16.90 0.100000 41.649648 41.62752893 0 0 0 0 0 0 0 0 STD5.60
2025-11-20 11:40:38 25 15.80 0.125000 41.649648 41.62752893 0 0 0 0 0 0 0 0 STD5.60
2025-11-20 11:35:36 13 16.50 0.065000 41.649648 41.62752893 0 0 0 0 0 0 0 0 STD5.60
2025-11-20 11:30:33 13 17.00 0.065000 41.649648 41.62752893 0 0 0 0 0 0 0 0 STD5.60
2025-11-20 11:25:31 16 18.90 0.080000 41.649648 41.62752893 0 0 0 0 0 0 0 0 STD5.60
2025-11-20 11:20:29 15 19.30 0.075000 41.649648 41.62752893 0 0 0 0 0 0 0 0 STD5.60
2025-11-20 11:15:27 23 16.20 0.115000 41.649648 41.62752893 0 0 0 0 0 0 0 0 STD5.60
2025-11-20 11:10:25 10 16.80 0.050000 41.649648 41.62752893 0 0 0 0 0 0 0 0 STD5.60
2025-11-20 11:05:23 19 19.80 0.095000 41.649648 41.62752893 0 0 0 0 0 0 0 0 STD5.60
2025-11-20 11:00:21 19 19.30 0.095000 41.649648 41.62752893 0 0 0 0 0 0 0 0 STD5.60
2025-11-20 10:55:20 12 18.50 0.060000 41.649648 41.62752893 0 0 0 0 0 0 0 0 STD5.60
2025-11-20 10:50:15 21 17.00 0.105000 41.649648 41.62752893 0 0 0 0 0 0 0 0 STD5.60
2025-11-20 10:45:13 13 15.50 0.065000 41.649648 41.62752893 0 0 0 0 0 0 0 0 STD5.60
2025-11-20 10:40:10 13 17.00 0.065000 41.649648 41.62752893 0 0 0 0 0 0 0 0 STD5.60
2025-11-20 10:35:08 22 18.70 0.110000 41.649648 41.62752893 0 0 0 0 0 0 0 0 STD5.60
2025-11-20 10:30:07 21 19.30 0.105000 41.649648 41.62752893 0 0 0 0 0 0 0 0 STD5.60
2025-11-20 10:25:04 15 18.90 0.075000 41.649648 41.62752893 0 0 0 0 0 0 0 0 STD5.60
2025-11-20 10:20:03 17 19.00 0.085000 41.649648 41.62752893 0 0 0 0 0 0 0 0 STD5.60
2025-11-20 10:15:00 23 18.70 0.115000 41.649648 41.62752893 0 0 0 0 0 0 0 0 STD5.60
2025-11-20 10:09:57 20 19.20 0.100000 41.649648 41.62752893 0 0 0 0 0 0 0 0 STD5.60
2025-11-20 10:04:55 22 17.40 0.110000 41.649648 41.62752893 0 0 0 0 0 0 0 0 STD5.60
2025-11-20 09:59:53 15 16.40 0.075000 41.649648 41.62752893 0 0 0 0 0 0 0 0 STD5.60
2025-11-20 09:54:51 17 17.70 0.085000 41.649648 41.62752893 0 0 0 0 0 0 0 0 STD5.60
2025-11-20 09:49:46 18 17.70 0.090000 41.649648 41.62752893 0 0 0 0 0 0 0 0 STD5.60
2025-11-20 09:44:44 14 18.40 0.070000 41.649648 41.62752893 0 0 0 0 0 0 0 0 STD5.60
2025-11-20 09:39:41 15 19.00 0.075000 41.649648 41.62752893 0 0 0 0 0 0 0 0 STD5.60
2025-11-20 09:34:39 12 19.10 0.060000 41.649648 41.62752893 0 0 0 0 0 0 0 0 STD5.60
2025-11-20 09:29:37 19 18.90 0.095000 41.649648 41.62752893 0 0 0 0 0 0 0 0 STD5.60
2025-11-20 09:24:35 15 20.10 0.075000 41.649648 41.62752893 0 0 0 0 0 0 0 0 STD5.60
2025-11-20 09:19:33 12 19.20 0.060000 41.649648 41.62752893 0 0 0 0 0 0 0 0 STD5.60
2025-11-20 09:14:31 15 18.60 0.075000 41.649648 41.62752893 0 0 0 0 0 0 0 0 STD5.60
2025-11-20 09:09:29 23 18.80 0.115000 41.649648 41.62752893 0 0 0 0 0 0 0 0 STD5.60
2025-11-20 09:04:27 16 18.20 0.080000 41.649648 41.62752893 0 0 0 0 0 0 0 0 STD5.60
2025-11-20 08:59:25 11 17.50 0.055000 41.649648 41.62752893 0 0 0 0 0 0 0 0 STD5.60
2025-11-20 08:54:23 17 16.30 0.085000 41.649648 41.62752893 0 0 0 0 0 0 0 0 STD5.60
2025-11-20 08:49:18 18 17.50 0.090000 41.649648 41.62752893 0 0 0 0 0 0 0 0 STD5.60
2025-11-20 08:44:17 15 18.50 0.075000 41.649648 41.62752893 0 0 0 0 0 0 0 0 STD5.60
2025-11-20 08:39:14 15 18.20 0.075000 41.649648 41.62752893 0 0 0 0 0 0 0 0 STD5.60
2025-11-20 08:34:12 19 19.00 0.095000 41.649648 41.62752893 0 0 0 0 0 0 0 0 STD5.60
2025-11-20 08:29:10 22 18.80 0.110000 41.649648 41.62752893 0 0 0 0 0 0 0 0 STD5.60
2025-11-20 08:24:08 25 18.00 0.125000 41.649648 41.62752893 0 0 0 0 0 0 0 0 STD5.60
2025-11-20 08:19:06 17 19.10 0.085000 41.649648 41.62752893 0 0 0 0 0 0 0 0 STD5.60
2025-11-20 08:14:04 18 17.40 0.090000 41.649648 41.62752893 0 0 0 0 0 0 0 0 STD5.60
2025-11-20 08:09:01 12 15.60 0.060000 41.649648 41.62752893 0 0 0 0 0 0 0 0 STD5.60
2025-11-20 08:03:59 13 17.00 0.065000 41.649648 41.62752893 0 0 0 0 0 0 0 0 STD5.60
2025-11-20 07:58:57 17 17.70 0.085000 41.649648 41.62752893 0 0 0 0 0 0 0 0 STD5.60
2025-11-20 07:53:55 19 18.50 0.095000 41.649648 41.62752893 0 0 0 0 0 0 0 0 STD5.60
2025-11-20 07:48:51 19 18.50 0.095000 41.649648 41.62752893 0 0 0 0 0 0 0 0 STD5.60
2025-11-20 07:43:48 18 18.80 0.090000 41.649648 41.62752893 0 0 0 0 0 0 0 0 STD5.60
2025-11-20 07:38:45 24 19.00 0.120000 41.649648 41.62752893 0 0 0 0 0 0 0 0 STD5.60
2025-11-20 07:33:43 20 18.80 0.100000 41.649648 41.62752893 0 0 0 0 0 0 0 0 STD5.60
2025-11-20 07:28:41 18 19.10 0.090000 41.649648 41.62752893 0 0 0 0 0 0 0 0 STD5.60
2025-11-20 07:23:39 23 18.10 0.115000 41.649648 41.62752893 0 0 0 0 0 0 0 0 STD5.60
2025-11-20 07:18:36 14 16.60 0.070000 41.649648 41.62752893 0 0 0 0 0 0 0 0 STD5.60
2025-11-20 07:13:35 16 15.60 0.080000 41.649648 41.62752893 0 0 0 0 0 0 0 0 STD5.60
2025-11-20 07:08:33 15 15.40 0.075000 41.649648 41.62752893 0 0 0 0 0 0 0 0 STD5.60
2025-11-20 07:03:31 19 16.80 0.095000 41.649648 41.62752893 0 0 0 0 0 0 0 0 STD5.60
2025-11-20 06:58:28 26 17.70 0.130000 41.649648 41.62752893 0 0 0 0 0 0 0 0 STD5.60
2025-11-20 06:53:26 20 16.90 0.100000 41.649648 41.62752893 0 0 0 0 0 0 0 0 STD5.60
2025-11-20 06:48:22 14 19.60 0.070000 41.649648 41.62752893 0 0 0 0 0 0 0 0 STD5.60
2025-11-20 06:43:20 27 20.00 0.135000 41.649648 41.62752893 0 0 0 0 0 0 0 0 STD5.60
2025-11-20 06:38:17 20 17.50 0.100000 41.649648 41.62752893 0 0 0 0 0 0 0 0 STD5.60
2025-11-20 06:33:15 20 17.70 0.100000 41.649648 41.62752893 0 0 0 0 0 0 0 0 STD5.60
2025-11-20 06:28:13 20 17.90 0.100000 41.649648 41.62752893 0 0 0 0 0 0 0 0 STD5.60
2025-11-20 06:23:11 13 18.00 0.065000 41.649648 41.62752893 0 0 0 0 0 0 0 0 STD5.60
2025-11-20 06:18:09 23 18.70 0.115000 41.649648 41.62752893 0 0 0 0 0 0 0 0 STD5.60
2025-11-20 06:13:07 11 17.70 0.055000 41.649648 41.62752893 0 0 0 0 0 0 0 0 STD5.60
2025-11-20 06:08:04 17 18.20 0.085000 41.649648 41.62752893 0 0 0 0 0 0 0 0 STD5.60
2025-11-20 06:03:03 17 19.60 0.085000 41.649648 41.62752893 0 0 0 0 0 0 0 0 STD5.60
2025-11-20 05:58:00 15 19.40 0.075000 41.649648 41.62752893 0 0 0 0 0 0 0 0 STD5.60
2025-11-20 05:52:58 14 19.10 0.070000 41.649648 41.62752893 0 0 0 0 0 0 0 0 STD5.60
2025-11-20 05:47:53 20 17.60 0.100000 41.649648 41.62752893 0 0 0 0 0 0 0 0 STD5.60
2025-11-20 05:42:51 21 18.00 0.105000 41.649648 41.62752893 0 0 0 0 0 0 0 0 STD5.60
2025-11-20 05:37:49 19 19.90 0.095000 41.649648 41.62752893 0 0 0 0 0 0 0 0 STD5.60
2025-11-20 05:32:47 16 19.90 0.080000 41.649648 41.62752893 0 0 0 0 0 0 0 0 STD5.60
2025-11-20 05:27:44 16 19.80 0.080000 41.649648 41.62752893 0 0 0 0 0 0 0 0 STD5.60
2025-11-20 05:22:42 20 18.60 0.100000 41.649648 41.62752893 0 0 0 0 0 0 0 0 STD5.60
2025-11-20 05:17:40 17 16.20 0.085000 41.649648 41.62752893 0 0 0 0 0 0 0 0 STD5.60
2025-11-20 05:12:38 12 16.70 0.060000 41.649648 41.62752893 0 0 0 0 0 0 0 0 STD5.60
2025-11-20 05:07:36 19 18.50 0.095000 41.649648 41.62752893 0 0 0 0 0 0 0 0 STD5.60
2025-11-20 05:02:34 19 18.90 0.095000 41.649648 41.62752893 0 0 0 0 0 0 0 0 STD5.60
2025-11-20 04:57:31 18 17.40 0.090000 41.649648 41.62752893 0 0 0 0 0 0 0 0 STD5.60
2025-11-20 04:52:29 17 17.40 0.085000 41.649648 41.62752893 0 0 0 0 0 0 0 0 STD5.60
2025-11-20 04:47:26 9 18.40 0.045000 41.649648 41.62752893 0 0 0 0 0 0 0 0 STD5.60
2025-11-20 04:42:23 17 19.70 0.085000 41.649648 41.62752893 0 0 0 0 0 0 0 0 STD5.60
2025-11-20 04:37:21 22 19.90 0.110000 41.649648 41.62752893 0 0 0 0 0 0 0 0 STD5.60
2025-11-20 04:32:19 16 18.20 0.080000 41.649648 41.62752893 0 0 0 0 0 0 0 0 STD5.60
2025-11-20 04:27:16 18 17.10 0.090000 41.649648 41.62752893 0 0 0 0 0 0 0 0 STD5.60
2025-11-20 04:22:14 17 16.30 0.085000 41.649648 41.62752893 0 0 0 0 0 0 0 0 STD5.60
2025-11-20 04:17:13 19 15.90 0.095000 41.649648 41.62752893 0 0 0 0 0 0 0 0 STD5.60
2025-11-20 04:12:10 12 16.20 0.060000 41.649648 41.62752893 0 0 0 0 0 0 0 0 STD5.60
2025-11-20 04:07:08 14 18.10 0.070000 41.649648 41.62752893 0 0 0 0 0 0 0 0 STD5.60
2025-11-20 04:02:06 14 19.80 0.070000 41.649648 41.62752893 0 0 0 0 0 0 0 0 STD5.60
2025-11-20 03:57:04 21 18.30 0.105000 41.649648 41.62752893 0 0 0 0 0 0 0 0 STD5.60
2025-11-20 03:52:02 15 15.90 0.075000 41.649648 41.62752893 0 0 0 0 0 0 0 0 STD5.60
2025-11-20 03:46:57 14 16.50 0.070000 41.649648 41.62752893 0 0 0 0 0 0 0 0 STD5.60
2025-11-20 03:41:55 24 18.90 0.120000 41.649648 41.62752893 0 0 0 0 0 0 0 0 STD5.60
2025-11-20 03:36:53 18 19.60 0.090000 41.649648 41.62752893 0 0 0 0 0 0 0 0 STD5.60
2025-11-20 03:31:51 21 19.00 0.105000 41.649648 41.62752893 0 0 0 0 0 0 0 0 STD5.60
2025-11-20 03:26:48 15 19.70 0.075000 41.649648 41.62752893 0 0 0 0 0 0 0 0 STD5.60
2025-11-20 03:21:46 21 18.80 0.105000 41.649648 41.62752893 0 0 0 0 0 0 0 0 STD5.60
2025-11-20 03:16:44 15 16.80 0.075000 41.649648 41.62752893 0 0 0 0 0 0 0 0 STD5.60
2025-11-20 03:11:42 13 19.20 0.065000 41.649648 41.62752893 0 0 0 0 0 0 0 0 STD5.60
2025-11-20 03:06:40 26 18.60 0.130000 41.649648 41.62752893 0 0 0 0 0 0 0 0 STD5.60
2025-11-20 03:01:38 18 18.80 0.090000 41.649648 41.62752893 0 0 0 0 0 0 0 0 STD5.60
2025-11-20 02:56:35 21 19.70 0.105000 41.649648 41.62752893 0 0 0 0 0 0 0 0 STD5.60
2025-11-20 02:51:33 14 16.80 0.070000 41.649648 41.62752893 0 0 0 0 0 0 0 0 STD5.60
2025-11-20 02:46:29 17 14.20 0.085000 41.649648 41.62752893 0 0 0 0 0 0 0 0 STD5.60
2025-11-20 02:41:27 21 15.70 0.105000 41.649648 41.62752893 0 0 0 0 0 0 0 0 STD5.60
2025-11-20 02:36:25 25 17.00 0.125000 41.649648 41.62752893 0 0 0 0 0 0 0 0 STD5.60
2025-11-20 02:31:23 16 17.40 0.080000 41.649648 41.62752893 0 0 0 0 0 0 0 0 STD5.60
2025-11-20 02:26:21 12 17.10 0.060000 41.649648 41.62752893 0 0 0 0 0 0 0 0 STD5.60
2025-11-20 02:21:18 20 17.20 0.100000 41.649648 41.62752893 0 0 0 0 0 0 0 0 STD5.60
2025-11-20 02:16:16 15 19.40 0.075000 41.649648 41.62752893 0 0 0 0 0 0 0 0 STD5.60
2025-11-20 02:11:14 13 19.80 0.065000 41.649648 41.62752893 0 0 0 0 0 0 0 0 STD5.60
2025-11-20 02:06:12 23 16.70 0.115000 41.649648 41.62752893 0 0 0 0 0 0 0 0 STD5.60
2025-11-20 02:01:10 13 18.40 0.065000 41.649648 41.62752893 0 0 0 0 0 0 0 0 STD5.60
2025-11-20 01:56:08 27 19.80 0.135000 41.649648 41.62752893 0 0 0 0 0 0 0 0 STD5.60
2025-11-20 01:51:06 17 18.20 0.085000 41.649648 41.62752893 0 0 0 0 0 0 0 0 STD5.60
2025-11-20 01:46:02 16 19.50 0.080000 41.649648 41.62752893 0 0 0 0 0 0 0 0 STD5.60
2025-11-20 01:40:59 24 17.90 0.120000 41.649648 41.62752893 0 0 0 0 0 0 0 0 STD5.60
2025-11-20 01:35:57 16 17.60 0.080000 41.649648 41.62752893 0 0 0 0 0 0 0 0 STD5.60
2025-11-20 01:30:55 20 17.00 0.100000 41.649648 41.62752893 0 0 0 0 0 0 0 0 STD5.60
2025-11-20 01:25:53 11 16.90 0.055000 41.649648 41.62752893 0 0 0 0 0 0 0 0 STD5.60
2025-11-20 01:20:50 25 20.50 0.125000 41.649648 41.62752893 0 0 0 0 0 0 0 0 STD5.60
2025-11-20 01:15:48 23 19.50 0.115000 41.649648 41.62752893 0 0 0 0 0 0 0 0 STD5.60
2025-11-20 01:10:46 17 17.80 0.085000 41.649648 41.62752893 0 0 0 0 0 0 0 0 STD5.60
2025-11-20 01:05:44 17 17.00 0.085000 41.649648 41.62752893 0 0 0 0 0 0 0 0 STD5.60
2025-11-20 01:00:42 12 17.10 0.060000 41.649648 41.62752893 0 0 0 0 0 0 0 0 STD5.60
2025-11-20 00:55:40 12 16.50 0.060000 41.649648 41.62752893 0 0 0 0 0 0 0 0 STD5.60
2025-11-20 00:50:37 21 15.10 0.105000 41.649648 41.62752893 0 0 0 0 0 0 0 0 STD5.60
2025-11-20 00:45:34 14 17.10 0.070000 41.649648 41.62752893 0 0 0 0 0 0 0 0 STD5.60
2025-11-20 00:40:31 24 19.30 0.120000 41.649648 41.62752893 0 0 0 0 0 0 0 0 STD5.60
2025-11-20 00:35:29 18 18.40 0.090000 41.649648 41.62752893 0 0 0 0 0 0 0 0 STD5.60
2025-11-20 00:30:28 13 16.80 0.065000 41.649648 41.62752893 0 0 0 0 0 0 0 0 STD5.60
2025-11-20 00:25:25 17 17.70 0.085000 41.649648 41.62752893 0 0 0 0 0 0 0 0 STD5.60
2025-11-20 00:20:22 11 18.30 0.055000 41.649648 41.62752893 0 0 0 0 0 0 0 0 STD5.60
2025-11-20 00:15:20 19 18.40 0.095000 41.649648 41.62752893 0 0 0 0 0 0 0 0 STD5.60
2025-11-20 00:10:18 21 18.00 0.105000 41.649648 41.62752893 0 0 0 0 0 0 0 0 STD5.60
2025-11-20 00:05:16 13 16.60 0.065000 41.649648 41.62752893 0 0 0 0 0 0 0 0 STD5.60
2025-11-20 00:00:14 25 18.40 0.125000 41.649648 41.62752893 0 0 0 0 0 0 0 0 STD5.60
2025-11-19 23:55:12 24 17.90 0.120000 41.649648 41.62752893 0 0 0 0 0 0 0 0 STD5.60
2025-11-19 23:50:09 14 17.40 0.070000 41.649648 41.62752893 0 0 0 0 0 0 0 0 STD5.60
2025-11-19 23:45:05 24 18.50 0.120000 41.649648 41.62752893 0 0 0 0 0 0 0 0 STD5.60
2025-11-19 23:40:04 14 17.90 0.070000 41.649648 41.62752893 0 0 0 0 0 0 0 0 STD5.60
2025-11-19 23:35:02 13 17.00 0.065000 41.649648 41.62752893 0 0 0 0 0 0 0 0 STD5.60
2025-11-19 23:29:59 20 15.60 0.100000 41.649648 41.62752893 0 0 0 0 0 0 0 0 STD5.60
2025-11-19 23:24:57 11 18.30 0.055000 41.649648 41.62752893 0 0 0 0 0 0 0 0 STD5.60
2025-11-19 23:19:55 17 18.70 0.085000 41.649648 41.62752893 0 0 0 0 0 0 0 0 STD5.60
2025-11-19 23:14:52 9 17.10 0.045000 41.649648 41.62752893 0 0 0 0 0 0 0 0 STD5.60
2025-11-19 23:09:51 14 18.90 0.070000 41.649648 41.62752893 0 0 0 0 0 0 0 0 STD5.60
2025-11-19 23:04:48 14 18.50 0.070000 41.649648 41.62752893 0 0 0 0 0 0 0 0 STD5.60
2025-11-19 22:59:46 24 18.40 0.120000 41.649648 41.62752893 0 0 0 0 0 0 0 0 STD5.60
2025-11-19 22:54:43 18 16.80 0.090000 41.649648 41.62752893 0 0 0 0 0 0 0 0 STD5.60
2025-11-19 22:49:41 16 16.00 0.080000 41.649648 41.62752893 0 0 0 0 0 0 0 0 STD5.60
2025-11-19 22:44:36 17 16.30 0.085000 41.649648 41.62752893 0 0 0 0 0 0 0 0 STD5.60
2025-11-19 22:39:34 11 17.40 0.055000 41.649648 41.62752893 0 0 0 0 0 0 0 0 STD5.60
2025-11-19 22:34:32 26 18.20 0.130000 41.649648 41.62752893 0 0 0 0 0 0 0 0 STD5.60
2025-11-19 22:29:30 16 17.00 0.080000 41.649648 41.62752893 0 0 0 0 0 0 0 0 STD5.60
2025-11-19 22:24:27 19 17.40 0.095000 41.649648 41.62752893 0 0 0 0 0 0 0 0 STD5.60
2025-11-19 22:19:25 17 17.20 0.085000 41.649648 41.62752893 0 0 0 0 0 0 0 0 STD5.60
2025-11-19 22:14:23 17 17.20 0.085000 41.649648 41.62752893 0 0 0 0 0 0 0 0 STD5.60
2025-11-19 22:09:21 19 16.60 0.095000 41.649648 41.62752893 0 0 0 0 0 0 0 0 STD5.60
2025-11-19 22:04:19 7 16.80 0.035000 41.649648 41.62752893 0 0 0 0 0 0 0 0 STD5.60
2025-11-19 21:59:17 24 16.60 0.120000 41.649648 41.62752893 0 0 0 0 0 0 0 0 STD5.60
2025-11-19 21:54:15 11 16.10 0.055000 41.649648 41.62752893 0 0 0 0 0 0 0 0 STD5.60
2025-11-19 21:49:13 21 19.00 0.105000 41.649648 41.62752893 0 0 0 0 0 0 0 0 STD5.60
2025-11-19 21:43:57 21 20.50 0.105000 41.649648 41.62752893 0 0 0 0 0 0 0 0 STD5.60
2025-11-19 21:38:54 33 20.40 0.165000 41.649648 41.62752893 0 0 0 0 0 0 0 0 STD5.60
2025-11-19 21:33:52 19 18.10 0.095000 41.649648 41.62752893 0 0 0 0 0 0 0 0 STD5.60
2025-11-19 21:28:50 25 15.10 0.125000 41.649648 41.62752893 0 0 0 0 0 0 0 0 STD5.60
2025-11-19 21:23:48 15 15.00 0.075000 41.649648 41.62752893 0 0 0 0 0 0 0 0 STD5.60
2025-11-19 21:18:46 19 16.80 0.095000 41.649648 41.62752893 0 0 0 0 0 0 0 0 STD5.60
2025-11-19 21:13:43 20 17.20 0.100000 41.649648 41.62752893 0 0 0 0 0 0 0 0 STD5.60
2025-11-19 21:08:41 16 16.50 0.080000 41.649648 41.62752893 0 0 0 0 0 0 0 0 STD5.60
2025-11-19 21:03:39 14 15.90 0.070000 41.649648 41.62752893 0 0 0 0 0 0 0 0 STD5.60
2025-11-19 20:58:37 17 14.30 0.085000 41.649648 41.62752893 0 0 0 0 0 0 0 0 STD5.60
2025-11-19 20:53:35 13 14.50 0.065000 41.649648 41.62752893 0 0 0 0 0 0 0 0 STD5.60
2025-11-19 20:48:33 16 16.60 0.080000 41.649648 41.62752893 0 0 0 0 0 0 0 0 STD5.60
2025-11-19 20:43:28 12 17.30 0.060000 41.649648 41.62752893 0 0 0 0 0 0 0 0 STD5.60
2025-11-19 20:38:26 16 18.60 0.080000 41.649648 41.62752893 0 0 0 0 0 0 0 0 STD5.60
2025-11-19 20:33:24 19 17.00 0.095000 41.649648 41.62752893 0 0 0 0 0 0 0 0 STD5.60
2025-11-19 20:28:21 13 16.80 0.065000 41.649648 41.62752893 0 0 0 0 0 0 0 0 STD5.60
2025-11-19 20:23:19 17 18.10 0.085000 41.649648 41.62752893 0 0 0 0 0 0 0 0 STD5.60
2025-11-19 20:18:16 16 17.50 0.080000 41.649648 41.62752893 0 0 0 0 0 0 0 0 STD5.60
2025-11-19 20:13:14 15 15.50 0.075000 41.649648 41.62752893 0 0 0 0 0 0 0 0 STD5.60
2025-11-19 20:08:12 14 15.60 0.070000 41.649648 41.62752893 0 0 0 0 0 0 0 0 STD5.60
2025-11-19 20:03:10 14 17.80 0.070000 41.649648 41.62752893 0 0 0 0 0 0 0 0 STD5.60
2025-11-19 19:58:08 22 17.80 0.110000 41.649648 41.62752893 0 0 0 0 0 0 0 0 STD5.60
2025-11-19 19:53:06 14 15.50 0.070000 41.649648 41.62752893 0 0 0 0 0 0 0 0 STD5.60
2025-11-19 19:48:04 11 15.80 0.055000 41.649648 41.62752893 0 0 0 0 0 0 0 0 STD5.60
2025-11-19 19:43:00 17 17.20 0.085000 41.649648 41.62752893 0 0 0 0 0 0 0 0 STD5.60
2025-11-19 19:37:58 16 16.80 0.080000 41.649648 41.62752893 0 0 0 0 0 0 0 0 STD5.60
2025-11-19 19:32:56 19 19.40 0.095000 41.649648 41.62752893 0 0 0 0 0 0 0 0 STD5.60
2025-11-19 19:27:54 29 20.40 0.145000 41.649648 41.62752893 0 0 0 0 0 0 0 0 STD5.60
2025-11-19 19:22:52 20 15.90 0.100000 41.649648 41.62752893 0 0 0 0 0 0 0 0 STD5.60
2025-11-19 19:17:50 12 16.00 0.060000 41.649648 41.62752893 0 0 0 0 0 0 0 0 STD5.60
2025-11-19 19:12:48 21 20.90 0.105000 41.649648 41.62752893 0 0 0 0 0 0 0 0 STD5.60
2025-11-19 19:07:46 17 22.20 0.085000 41.649648 41.62752893 0 0 0 0 0 0 0 0 STD5.60
2025-11-19 19:02:44 24 20.20 0.120000 41.649648 41.62752893 0 0 0 0 0 0 0 0 STD5.60
2025-11-19 18:57:42 16 18.40 0.080000 41.649648 41.62752893 0 0 0 0 0 0 0 0 STD5.60
2025-11-19 18:52:39 16 18.90 0.080000 41.649648 41.62752893 0 0 0 0 0 0 0 0 STD5.60
2025-11-19 18:47:37 18 18.50 0.090000 41.649648 41.62752893 0 0 0 0 0 0 0 0 STD5.60
2025-11-19 18:42:34 14 16.60 0.070000 41.649648 41.62752893 0 0 0 0 0 0 0 0 STD5.60
2025-11-19 18:37:31 20 17.30 0.100000 41.649648 41.62752893 0 0 0 0 0 0 0 0 STD5.60
2025-11-19 18:32:29 15 19.90 0.075000 41.649648 41.62752893 0 0 0 0 0 0 0 0 STD5.60
2025-11-19 18:27:27 22 20.20 0.110000 41.649648 41.62752893 0 0 0 0 0 0 0 0 STD5.60
2025-11-19 18:22:24 12 17.50 0.060000 41.649648 41.62752893 0 0 0 0 0 0 0 0 STD5.60
2025-11-19 18:17:22 10 17.10 0.050000 41.649648 41.62752893 0 0 0 0 0 0 0 0 STD5.60
2025-11-19 18:12:20 21 19.00 0.105000 41.649648 41.62752893 0 0 0 0 0 0 0 0 STD5.60
2025-11-19 18:07:18 20 19.00 0.100000 41.649648 41.62752893 0 0 0 0 0 0 0 0 STD5.60
2025-11-19 18:02:16 22 19.30 0.110000 41.649648 41.62752893 0 0 0 0 0 0 0 0 STD5.60
2025-11-19 17:57:14 22 19.90 0.110000 41.649648 41.62752893 0 0 0 0 0 0 0 0 STD5.60
2025-11-19 17:52:12 23 19.10 0.115000 41.649648 41.62752893 0 0 0 0 0 0 0 0 STD5.60
2025-11-19 17:47:10 17 18.40 0.085000 41.649648 41.62752893 0 0 0 0 0 0 0 0 STD5.60
2025-11-19 17:42:06 14 19.10 0.070000 41.649648 41.62752893 0 0 0 0 0 0 0 0 STD5.60
2025-11-19 17:37:04 22 19.70 0.110000 41.649648 41.62752893 0 0 0 0 0 0 0 0 STD5.60
2025-11-19 17:32:02 25 20.70 0.125000 41.649648 41.62752893 0 0 0 0 0 0 0 0 STD5.60
2025-11-19 17:26:59 20 19.10 0.100000 41.649648 41.62752893 0 0 0 0 0 0 0 0 STD5.60
2025-11-19 17:21:57 12 19.30 0.060000 41.649648 41.62752893 0 0 0 0 0 0 0 0 STD5.60
2025-11-19 17:16:57 14 18.90 0.070000 41.649648 41.62752893 0 0 0 0 0 0 0 0 STD5.60
2025-11-19 17:11:52 15 18.00 0.075000 41.649648 41.62752893 0 0 0 0 0 0 0 0 STD5.60
2025-11-19 17:06:50 21 20.20 0.105000 41.649648 41.62752893 0 0 0 0 0 0 0 0 STD5.60
2025-11-19 17:01:48 23 19.60 0.115000 41.649648 41.62752893 0 0 0 0 0 0 0 0 STD5.60
2025-11-19 16:56:46 18 18.00 0.090000 41.649648 41.62752893 0 0 0 0 0 0 0 0 STD5.60
2025-11-19 16:51:44 19 19.20 0.095000 41.649648 41.62752893 0 0 0 0 0 0 0 0 STD5.60
2025-11-19 16:46:41 10 20.20 0.050000 41.649648 41.62752893 0 0 0 0 0 0 0 0 STD5.60
2025-11-19 16:41:37 20 17.40 0.100000 41.649648 41.62752893 0 0 0 0 0 0 0 0 STD5.60
2025-11-19 16:36:35 16 15.70 0.080000 41.649648 41.62752893 0 0 0 0 0 0 0 0 STD5.60
2025-11-19 16:31:33 18 17.70 0.090000 41.649648 41.62752893 0 0 0 0 0 0 0 0 STD5.60
2025-11-19 16:26:33 19 19.20 0.095000 41.649648 41.62752893 0 0 0 0 0 0 0 0 STD5.60
2025-11-19 16:21:29 22 17.50 0.110000 41.649648 41.62752893 0 0 0 0 0 0 0 0 STD5.60
2025-11-19 16:16:27 17 18.00 0.085000 41.649648 41.62752893 0 0 0 0 0 0 0 0 STD5.60
2025-11-19 16:11:25 26 19.10 0.130000 41.649648 41.62752893 0 0 0 0 0 0 0 0 STD5.60
2025-11-19 16:06:23 13 17.70 0.065000 41.649648 41.62752893 0 0 0 0 0 0 0 0 STD5.60
2025-11-19 16:01:21 18 16.30 0.090000 41.649648 41.62752893 0 0 0 0 0 0 0 0 STD5.60
2025-11-19 15:56:19 13 15.50 0.065000 41.649648 41.62752893 0 0 0 0 0 0 0 0 STD5.60
2025-11-19 15:51:16 24 18.10 0.120000 41.649648 41.62752893 0 0 0 0 0 0 0 0 STD5.60
2025-11-19 15:46:14 19 17.50 0.095000 41.649648 41.62752893 0 0 0 0 0 0 0 0 STD5.60
2025-11-19 15:41:10 17 17.50 0.085000 41.649648 41.62752893 0 0 0 0 0 0 0 0 STD5.60
2025-11-19 15:36:09 14 21.10 0.070000 41.649648 41.62752893 0 0 0 0 0 0 0 0 STD5.60
2025-11-19 15:31:06 19 22.00 0.095000 41.649648 41.62752893 0 0 0 0 0 0 0 0 STD5.60
2025-11-19 15:26:04 25 20.00 0.125000 41.649648 41.62752893 0 0 0 0 0 0 0 0 STD5.60
2025-11-19 15:21:02 13 15.80 0.065000 41.649648 41.62752893 0 0 0 0 0 0 0 0 STD5.60
2025-11-19 15:16:00 13 16.80 0.065000 41.649648 41.62752893 0 0 0 0 0 0 0 0 STD5.60
2025-11-19 15:10:58 16 20.20 0.080000 41.649648 41.62752893 0 0 0 0 0 0 0 0 STD5.60
2025-11-19 15:05:56 16 18.60 0.080000 41.649648 41.62752893 0 0 0 0 0 0 0 0 STD5.60
2025-11-19 15:00:53 23 18.00 0.115000 41.649648 41.62752893 0 0 0 0 0 0 0 0 STD5.60
2025-11-19 14:55:51 18 20.30 0.090000 41.649648 41.62752893 0 0 0 0 0 0 0 0 STD5.60
2025-11-19 14:50:49 22 20.70 0.110000 41.649648 41.62752893 0 0 0 0 0 0 0 0 STD5.60
2025-11-19 14:45:45 17 17.90 0.085000 41.649648 41.62752893 0 0 0 0 0 0 0 0 STD5.60
2025-11-19 14:40:43 16 17.40 0.080000 41.649648 41.62752893 0 0 0 0 0 0 0 0 STD5.60
2025-11-19 14:35:41 13 19.10 0.065000 41.649648 41.62752893 0 0 0 0 0 0 0 0 STD5.60
2025-11-19 14:30:38 16 17.90 0.080000 41.649648 41.62752893 0 0 0 0 0 0 0 0 STD5.60
2025-11-19 14:25:36 19 16.90 0.095000 41.649648 41.62752893 0 0 0 0 0 0 0 0 STD5.60
2025-11-19 14:20:33 18 18.20 0.090000 41.649648 41.62752893 0 0 0 0 0 0 0 0 STD5.60
2025-11-19 14:15:31 18 17.50 0.090000 41.649648 41.62752893 0 0 0 0 0 0 0 0 STD5.60
2025-11-19 14:10:32 19 16.40 0.095000 41.649648 41.62752893 0 0 0 0 0 0 0 0 STD5.60
2025-11-19 14:05:27 12 18.50 0.060000 41.649648 41.62752893 0 0 0 0 0 0 0 0 STD5.60
2025-11-19 14:00:25 26 19.70 0.130000 41.649648 41.62752893 0 0 0 0 0 0 0 0 STD5.60
2025-11-19 13:55:23 18 17.50 0.090000 41.649648 41.62752893 0 0 0 0 0 0 0 0 STD5.60
2025-11-19 13:50:21 13 8.20 0.065000 41.649648 41.62752893 0 0 0 0 0 0 0 0 STD5.60
2025-11-19 13:45:16 9 18.10 0.045000 41.649648 41.62752893 0 0 0 0 0 0 0 0 STD5.60
2025-11-19 13:40:14 21 20.20 0.105000 41.649648 41.62752893 0 0 0 0 0 0 0 0 STD5.60
2025-11-19 13:35:12 21 17.10 0.105000 41.649648 41.62752893 0 0 0 0 0 0 0 0 STD5.60
2025-11-19 13:30:11 18 15.50 0.090000 41.649648 41.62752893 0 0 0 0 0 0 0 0 STD5.60
2025-11-19 13:25:08 17 17.90 0.085000 41.649648 41.62752893 0 0 0 0 0 0 0 0 STD5.60
2025-11-19 13:20:06 24 17.50 0.120000 41.649648 41.62752893 0 0 0 0 0 0 0 0 STD5.60
2025-11-19 13:15:04 19 16.50 0.095000 41.649648 41.62752893 0 0 0 0 0 0 0 0 STD5.60
2025-11-19 13:10:01 20 16.00 0.100000 41.649648 41.62752893 0 0 0 0 0 0 0 0 STD5.60
2025-11-19 13:04:59 16 17.40 0.080000 41.649648 41.62752893 0 0 0 0 0 0 0 0 STD5.60
2025-11-19 12:59:57 23 19.60 0.115000 41.649648 41.62752893 0 0 0 0 0 0 0 0 STD5.60
2025-11-19 12:54:55 24 18.00 0.120000 41.649648 41.62752893 0 0 0 0 0 0 0 0 STD5.60
2025-11-19 12:49:53 16 18.20 0.080000 41.649648 41.62752893 0 0 0 0 0 0 0 0 STD5.60
2025-11-19 12:44:49 24 18.70 0.120000 41.649648 41.62752893 0 0 0 0 0 0 0 0 STD5.60
2025-11-19 12:39:46 20 16.40 0.100000 41.649648 41.62752893 0 0 0 0 0 0 0 0 STD5.60
2025-11-19 12:34:45 14 16.80 0.070000 41.649648 41.62752893 0 0 0 0 0 0 0 0 STD5.60
2025-11-19 12:29:42 25 16.70 0.125000 41.649648 41.62752893 0 0 0 0 0 0 0 0 STD5.60
2025-11-19 12:24:40 17 15.80 0.085000 41.649648 41.62752893 0 0 0 0 0 0 0 0 STD5.60
2025-11-19 12:19:38 19 14.80 0.095000 41.649648 41.62752893 0 0 0 0 0 0 0 0 STD5.60
2025-11-19 12:14:35 15 15.40 0.075000 41.649648 41.62752893 0 0 0 0 0 0 0 0 STD5.60
2025-11-19 12:09:33 19 18.70 0.095000 41.649648 41.62752893 0 0 0 0 0 0 0 0 STD5.60
2025-11-19 12:04:31 24 20.70 0.120000 41.649648 41.62752893 0 0 0 0 0 0 0 0 STD5.60
Geiger Counter World Map       A real time radiation map.     Copyright 2015 All rights reserved.